createdAt,value
2018-09-23T00:00:38.253Z,2.83
2018-09-23T00:05:30.855Z,2.50
2018-09-23T00:10:23.455Z,2.40
2018-09-23T00:15:16.057Z,2.30
2018-09-23T00:20:08.778Z,2.30
2018-09-23T00:25:01.511Z,3.37
2018-09-23T00:29:54.092Z,2.57
2018-09-23T00:34:46.713Z,2.53
2018-09-23T00:39:39.322Z,2.80
2018-09-23T00:44:31.926Z,2.50
2018-09-23T00:49:24.531Z,2.90
2018-09-23T00:54:17.086Z,3.30
2018-09-23T00:59:09.669Z,3.23
2018-09-23T01:04:02.280Z,3.70
2018-09-23T01:08:54.834Z,12.30
2018-09-23T01:13:47.507Z,19.10
2018-09-23T01:18:40.239Z,19.97
2018-09-23T01:23:32.828Z,21.60
2018-09-23T01:28:25.516Z,13.87
2018-09-23T01:33:18.071Z,8.40
2018-09-23T01:38:10.882Z,6.60
2018-09-23T01:43:03.496Z,6.10
2018-09-23T01:47:56.134Z,4.93
2018-09-23T01:52:48.746Z,4.10
2018-09-23T01:57:41.327Z,4.30
2018-09-23T02:02:33.969Z,4.90
2018-09-23T02:07:26.547Z,4.57
2018-09-23T02:12:19.113Z,4.97
2018-09-23T02:22:15.974Z,6.00
2018-09-23T02:27:08.653Z,4.63
2018-09-23T02:32:01.252Z,4.50
2018-09-23T02:36:53.856Z,4.23
2018-09-23T02:41:46.442Z,3.70
2018-09-23T02:46:39.027Z,3.80
2018-09-23T02:51:31.650Z,3.80
2018-09-23T02:56:24.277Z,3.60
2018-09-23T03:01:16.846Z,3.80
2018-09-23T03:06:09.407Z,3.43
2018-09-23T03:11:01.971Z,3.60
2018-09-23T03:15:54.519Z,3.57
2018-09-23T03:20:47.090Z,4.10
2018-09-23T03:25:39.704Z,4.43
2018-09-23T03:30:32.291Z,4.33
2018-09-23T03:35:24.911Z,4.77
2018-09-23T03:40:17.483Z,4.87
2018-09-23T03:45:10.143Z,5.33
2018-09-23T03:50:02.963Z,6.00
2018-09-23T03:54:55.511Z,6.03
2018-09-23T03:59:48.034Z,6.47
2018-09-23T04:04:40.591Z,6.40
2018-09-23T04:09:33.219Z,6.00
2018-09-23T04:14:25.823Z,6.20
2018-09-23T04:19:18.504Z,6.50
2018-09-23T04:24:11.220Z,6.67
2018-09-23T04:29:03.782Z,6.23
2018-09-23T04:33:56.379Z,6.10
2018-09-23T04:38:48.975Z,6.40
2018-09-23T04:43:41.568Z,6.50
2018-09-23T04:48:34.256Z,6.63
2018-09-23T04:53:26.843Z,6.00
2018-09-23T04:58:19.514Z,6.17
2018-09-23T05:03:12.095Z,6.33
2018-09-23T05:08:05.060Z,6.73
2018-09-23T05:12:57.786Z,6.67
2018-09-23T05:17:50.600Z,6.57
2018-09-23T05:22:43.192Z,6.50
2018-09-23T05:27:35.761Z,6.70
2018-09-23T05:32:28.760Z,6.67
2018-09-23T05:37:21.462Z,7.10
2018-09-23T05:42:14.046Z,6.53
2018-09-23T05:47:07.017Z,7.00
2018-09-23T05:51:59.599Z,6.47
2018-09-23T05:56:52.343Z,7.43
2018-09-23T06:01:44.858Z,7.00
2018-09-23T06:06:37.607Z,6.30
2018-09-23T06:11:30.184Z,6.60
2018-09-23T06:16:22.811Z,6.80
2018-09-23T06:21:15.483Z,6.70
2018-09-23T06:26:08.094Z,5.83
2018-09-23T06:31:00.756Z,6.27
2018-09-23T06:35:53.327Z,5.87
2018-09-23T06:40:46.146Z,5.80
2018-09-23T06:45:38.764Z,6.30
2018-09-23T06:50:31.332Z,6.53
2018-09-23T06:55:23.995Z,6.03
2018-09-23T07:00:16.528Z,6.23
2018-09-23T07:05:09.320Z,5.50
2018-09-23T07:10:01.868Z,5.20
2018-09-23T07:14:54.494Z,6.03
2018-09-23T07:19:47.136Z,5.70
2018-09-23T07:24:39.713Z,5.10
2018-09-23T07:29:32.444Z,5.33
2018-09-23T07:34:25.099Z,4.83
2018-09-23T07:39:17.740Z,4.93
2018-09-23T07:44:10.332Z,4.63
2018-09-23T07:49:02.935Z,4.57
2018-09-23T07:53:55.815Z,4.90
2018-09-23T07:58:48.552Z,4.33
2018-09-23T08:03:41.232Z,4.73
2018-09-23T08:08:34.166Z,4.20
2018-09-23T08:13:26.964Z,4.07
2018-09-23T08:18:19.791Z,4.43
2018-09-23T08:23:12.528Z,4.50
2018-09-23T08:28:05.111Z,4.47
2018-09-23T08:32:57.682Z,4.13
2018-09-23T08:37:50.247Z,4.67
2018-09-23T08:42:42.920Z,3.77
2018-09-23T08:47:35.578Z,4.10
2018-09-23T08:52:28.171Z,3.87
2018-09-23T08:57:20.768Z,3.50
2018-09-23T09:02:13.347Z,3.30
2018-09-23T09:07:06.137Z,3.60
2018-09-23T09:11:58.783Z,3.30
2018-09-23T09:16:51.400Z,3.43
2018-09-23T09:21:44.124Z,3.17
2018-09-23T09:26:36.860Z,3.30
2018-09-23T09:31:29.473Z,3.07
2018-09-23T09:36:22.080Z,3.07
2018-09-23T09:41:14.726Z,2.70
2018-09-23T09:46:07.368Z,2.43
2018-09-23T09:51:00.043Z,2.40
2018-09-23T09:55:52.664Z,2.53
2018-09-23T10:00:45.252Z,2.30
2018-09-23T10:05:37.809Z,1.93
2018-09-23T10:10:30.655Z,1.93
2018-09-23T10:15:23.182Z,1.67
2018-09-23T10:20:15.790Z,2.17
2018-09-23T10:25:08.564Z,2.10
2018-09-23T10:30:01.222Z,1.70
2018-09-23T10:34:54.464Z,1.67
2018-09-23T10:39:47.340Z,2.30
2018-09-23T10:44:39.939Z,1.93
2018-09-23T10:49:32.524Z,1.90
2018-09-23T10:54:25.097Z,2.27
2018-09-23T10:59:17.708Z,2.27
2018-09-23T11:04:10.525Z,1.57
2018-09-23T11:09:04.059Z,1.70
2018-09-23T11:13:56.719Z,1.83
2018-09-23T11:18:49.266Z,2.43
2018-09-23T11:23:42.077Z,1.90
2018-09-23T11:28:34.694Z,1.70
2018-09-23T11:33:27.329Z,1.70
2018-09-23T11:38:20.242Z,1.50
2018-09-23T11:43:12.860Z,1.40
2018-09-23T11:48:05.591Z,1.60
2018-09-23T11:52:58.255Z,1.97
2018-09-23T11:57:50.814Z,1.80
2018-09-23T12:02:43.588Z,1.77
2018-09-23T12:07:36.123Z,1.63
2018-09-23T12:12:28.833Z,1.53
2018-09-23T12:17:21.431Z,1.90
2018-09-23T12:22:14.110Z,1.50
2018-09-23T12:27:06.682Z,1.80
2018-09-23T12:31:59.278Z,2.10
2018-09-23T12:36:51.895Z,2.13
2018-09-23T12:41:44.514Z,2.40
2018-09-23T12:46:37.193Z,2.63
2018-09-23T12:51:29.867Z,2.47
2018-09-23T12:56:22.457Z,2.90
2018-09-23T13:01:14.957Z,3.07
2018-09-23T13:06:07.522Z,3.10
2018-09-23T13:11:00.090Z,2.50
2018-09-23T13:15:52.642Z,2.93
2018-09-23T13:20:45.407Z,2.60
2018-09-23T13:25:37.991Z,3.40
2018-09-23T13:30:30.735Z,3.30
2018-09-23T13:35:23.302Z,3.17
2018-09-23T13:40:16.039Z,3.97
2018-09-23T13:45:08.811Z,3.50
2018-09-23T13:50:01.363Z,3.53
2018-09-23T13:54:53.955Z,3.50
2018-09-23T13:59:46.604Z,4.23
2018-09-23T14:04:39.267Z,5.10
2018-09-23T14:09:31.836Z,4.10
2018-09-23T14:14:24.479Z,8.67
2018-09-23T14:19:17.258Z,4.40
2018-09-23T14:24:10.143Z,3.90
2018-09-23T14:29:02.778Z,3.90
2018-09-23T14:33:55.346Z,3.60
2018-09-23T14:38:47.956Z,3.87
2018-09-23T14:43:40.643Z,3.80
2018-09-23T14:48:33.276Z,3.57
2018-09-23T14:53:25.815Z,3.40
2018-09-23T14:58:18.406Z,3.87
2018-09-23T15:03:11.018Z,3.40
2018-09-23T15:08:03.620Z,3.80
2018-09-23T15:12:56.258Z,4.50
2018-09-23T15:17:49.028Z,3.80
2018-09-23T15:22:41.727Z,3.40
2018-09-23T15:27:34.584Z,2.87
2018-09-23T15:32:27.207Z,3.10
2018-09-23T15:37:20.078Z,2.90
2018-09-23T15:42:12.759Z,3.30
2018-09-23T15:47:05.756Z,4.07
2018-09-23T15:51:58.440Z,3.40
2018-09-23T15:56:51.206Z,3.40
2018-09-23T16:01:43.789Z,3.40
2018-09-23T16:06:36.470Z,3.20
2018-09-23T16:11:29.176Z,3.13
2018-09-23T16:16:21.751Z,2.83
2018-09-23T16:21:14.400Z,2.50
2018-09-23T16:26:07.015Z,3.53
2018-09-23T16:30:59.698Z,3.35
2018-09-23T16:35:52.316Z,3.00
2018-09-23T16:40:44.883Z,3.50
2018-09-23T16:45:37.503Z,2.77
2018-09-23T16:50:30.232Z,3.37
2018-09-23T16:55:22.879Z,3.17
2018-09-23T17:00:15.449Z,2.40
2018-09-23T17:05:07.961Z,17.10
2018-09-23T17:10:00.549Z,2.53
2018-09-23T17:14:54.242Z,2.23
2018-09-23T17:19:46.806Z,2.20
2018-09-23T17:24:40.393Z,2.40
2018-09-23T17:29:32.908Z,2.30
2018-09-23T17:34:25.527Z,2.60
2018-09-23T17:39:18.162Z,2.37
2018-09-23T17:44:10.743Z,2.27
2018-09-23T17:49:03.513Z,2.37
2018-09-23T17:53:56.063Z,2.80
2018-09-23T17:58:48.631Z,2.80
2018-09-23T18:03:41.219Z,3.70
2018-09-23T18:08:33.762Z,3.47
2018-09-23T18:13:26.417Z,3.13
2018-09-23T18:18:18.933Z,3.13
2018-09-23T18:23:11.569Z,2.57
2018-09-23T18:28:04.268Z,2.07
2018-09-23T18:32:56.834Z,2.83
2018-09-23T18:37:49.367Z,2.60
2018-09-23T18:42:42.078Z,2.30
2018-09-23T18:47:34.735Z,1.80
2018-09-23T18:52:27.363Z,2.10
2018-09-23T18:57:20.002Z,2.10
2018-09-23T19:02:12.786Z,2.67
2018-09-23T19:07:05.501Z,2.63
2018-09-23T19:11:58.129Z,2.60
2018-09-23T19:16:50.703Z,2.47
2018-09-23T19:21:43.344Z,2.90
2018-09-23T19:26:36.043Z,2.80
2018-09-23T19:31:28.663Z,3.10
2018-09-23T19:36:21.254Z,2.70
2018-09-23T19:41:15.012Z,3.13
2018-09-23T19:46:08.078Z,2.73
2018-09-23T19:51:00.602Z,2.67
2018-09-23T19:55:53.519Z,3.07
2018-09-23T20:00:46.101Z,3.20
2018-09-23T20:05:38.748Z,2.90
2018-09-23T20:10:31.308Z,3.67
2018-09-23T20:15:23.912Z,4.20
2018-09-23T20:20:16.516Z,4.87
2018-09-23T20:25:09.343Z,5.83
2018-09-23T20:30:01.966Z,8.00
2018-09-23T20:34:54.535Z,10.23
2018-09-23T20:39:47.533Z,9.50
2018-09-23T20:44:40.246Z,8.13
2018-09-23T20:49:32.894Z,9.10
2018-09-23T20:54:25.489Z,4.10
2018-09-23T20:59:18.241Z,2.67
2018-09-23T21:04:10.849Z,2.20
2018-09-23T21:09:05.857Z,1.80
2018-09-23T21:13:58.454Z,2.00
2018-09-23T21:18:51.127Z,1.97
2018-09-23T21:23:43.836Z,1.83
2018-09-23T21:28:36.630Z,1.40
2018-09-23T21:33:29.460Z,1.60
2018-09-23T21:38:22.243Z,1.50
2018-09-23T21:43:15.031Z,1.43
2018-09-23T21:48:07.796Z,1.73
2018-09-23T21:53:00.393Z,3.57
2018-09-23T21:57:53.053Z,4.10
2018-09-23T22:02:45.697Z,3.57
2018-09-23T22:07:38.292Z,3.63
2018-09-23T22:12:30.977Z,3.20
2018-09-23T22:17:23.567Z,3.20
2018-09-23T22:22:16.275Z,3.40
2018-09-23T22:27:08.879Z,3.30
2018-09-23T22:32:01.515Z,3.47
2018-09-23T22:36:54.264Z,3.70
2018-09-23T22:41:46.846Z,3.63
2018-09-23T22:46:39.430Z,3.30
2018-09-23T22:51:32.065Z,3.20
2018-09-23T22:56:24.664Z,2.77
2018-09-23T23:01:17.396Z,2.80
2018-09-23T23:06:09.974Z,2.63
2018-09-23T23:11:02.624Z,2.70
2018-09-23T23:15:55.262Z,3.00
2018-09-23T23:20:47.848Z,2.70
2018-09-23T23:25:40.456Z,2.10
2018-09-23T23:30:33.066Z,6.73
2018-09-23T23:35:25.648Z,7.60
2018-09-23T23:40:18.228Z,6.53
2018-09-23T23:45:10.796Z,5.33
2018-09-23T23:50:03.445Z,3.73
2018-09-23T23:54:56.061Z,2.00
2018-09-23T23:59:48.716Z,2.50
